
Distance (Route):
Temperature : 3.6°C
Humidity : 0%
Pressure : 0hPa| Receiver | Date | Latitude | Longitude | Direction | Speed | Altitude | Climb | Temperature | Humidity | Pressure | Voltage | Killtimer | Uptime | BKT | XDATA |
|---|---|---|---|---|---|---|---|---|---|---|---|---|---|---|---|
| DB0UT-7 | 2026-09-03 13:51:35 | 48.28680 | 3.70365 | 117° | 69km/h | 3945m | -4.7m/s | 3.6°C | 0% | 0hPa | 4.8V | 00:00:00 | 00:00:00 | 00:00:00 | |
| DB0UT-7 | 2026-09-03 13:51:05 | 48.28923 | 3.69671 | 120° | 69km/h | 4080m | -4.6m/s | 2.6°C | 0% | 0hPa | 4.8V | 00:00:00 | 00:00:00 | 00:00:00 | |
| DB0UT-7 | 2026-09-03 13:50:34 | 48.29177 | 3.68953 | 116° | 73km/h | 4228m | -4.9m/s | 1.6°C | 0% | 0hPa | 4.8V | 00:00:00 | 00:00:00 | 00:00:00 | |
| DB0UT-7 | 2026-09-03 13:50:04 | 48.29407 | 3.68201 | 115° | 75km/h | 4387m | -5.0m/s | 1.1°C | 0% | 0hPa | 4.8V | 00:00:00 | 00:00:00 | 00:00:00 | |
| DB0UT-7 | 2026-09-03 13:49:34 | 48.29627 | 3.67425 | 112° | 77km/h | 4552m | -5.0m/s | 0.0°C | 0% | 0hPa | 4.8V | 00:00:00 | 00:00:00 | 00:00:00 | |
| DB0UT-7 | 2026-09-03 13:49:04 | 48.29833 | 3.66609 | 110° | 77km/h | 4724m | -5.3m/s | -1.2°C | 0% | 0hPa | 4.8V | 00:00:00 | 00:00:00 | 00:00:00 | |
| DB0UT-7 | 2026-09-03 13:48:04 | 48.30196 | 3.65038 | 111° | 68km/h | 5096m | -5.6m/s | -2.5°C | 0% | 0hPa | 4.8V | 00:00:00 | 00:00:00 | 00:00:00 | |
| DB0UT-7 | 2026-09-03 13:47:34 | 48.30392 | 3.64318 | 113° | 77km/h | 5282m | -5.5m/s | -3.6°C | 0% | 0hPa | 4.8V | 00:00:00 | 00:00:00 | 00:00:00 | |
| DB0UT-7 | 2026-09-03 13:46:41 | 48.30783 | 3.62929 | 115° | 82km/h | 5847m | -11.3m/s | -7.3°C | 0% | 0hPa | 4.8V | 00:00:00 | 00:00:00 | 00:00:00 | |
| DB0UT-7 | 2026-09-03 13:46:09 | 48.31075 | 3.62034 | 114° | 84km/h | 6211m | -11.1m/s | -9.8°C | 0% | 0hPa | 4.8V | 00:00:00 | 00:00:00 | 00:00:00 | |
| DB0UT-7 | 2026-09-03 13:45:39 | 48.31285 | 3.61139 | 109° | 80km/h | 6554m | -11.5m/s | -11.7°C | 0% | 0hPa | 4.8V | 00:00:00 | 00:00:00 | 00:00:00 | |
| DB0UT-7 | 2026-09-03 13:45:09 | 48.31518 | 3.60295 | 116° | 75km/h | 6900m | -11.7m/s | -14.1°C | 0% | 0hPa | 4.8V | 00:00:00 | 00:00:00 | 00:00:00 | |
| DB0UT-7 | 2026-09-03 13:44:39 | 48.31737 | 3.59514 | 109° | 75km/h | 7259m | -12.1m/s | -16.5°C | 0% | 0hPa | 4.8V | 00:00:00 | 00:00:00 | 00:00:00 | |
| DB0UT-7 | 2026-09-03 13:44:09 | 48.31950 | 3.58725 | 116° | 77km/h | 7624m | -12.2m/s | -18.4°C | 0% | 0hPa | 4.8V | 00:00:00 | 00:00:00 | 00:00:00 | |
| DB0UT-7 | 2026-09-03 13:43:39 | 48.32219 | 3.57906 | 112° | 88km/h | 7996m | -12.7m/s | -21.4°C | 0% | 0hPa | 4.8V | 00:00:00 | 00:00:00 | 00:00:00 | |
| DB0UT-7 | 2026-09-03 13:42:56 | 48.32626 | 3.56654 | 116° | 95km/h | 8555m | -13.1m/s | -25.7°C | 0% | 0hPa | 4.8V | 00:00:00 | 00:00:00 | 00:00:00 | |
| DB0UT-7 | 2026-09-03 13:42:26 | 48.32915 | 3.55670 | 111° | 100km/h | 8943m | -13.0m/s | -29.1°C | 0% | 0hPa | 4.8V | 00:00:00 | 00:00:00 | 00:00:00 | |
| DB0UT-7 | 2026-09-03 13:41:28 | 48.33389 | 3.53536 | 112° | 108km/h | 9714m | -13.6m/s | -36.1°C | 0% | 0hPa | 4.9V | 00:00:00 | 00:00:00 | 00:00:00 | |
| DB0UT-7 | 2026-09-03 13:40:43 | 48.33912 | 3.51877 | 119° | 108km/h | 10337m | -14.1m/s | -41.1°C | 0% | 0hPa | 4.9V | 00:00:00 | 00:00:00 | 00:00:00 | |
| DB0UT-7 | 2026-09-03 13:39:31 | 48.35007 | 3.49424 | 127° | 106km/h | 11343m | -14.2m/s | -49.4°C | 0% | 0hPa | 4.9V | 00:00:00 | 00:00:00 | 00:00:00 | |
| DB0UT-7 | 2026-09-03 13:39:01 | 48.35479 | 3.48442 | 123° | 110km/h | 11767m | -13.9m/s | -52.9°C | 0% | 0hPa | 4.9V | 00:00:00 | 00:00:00 | 00:00:00 | |
| DB0UT-7 | 2026-09-03 13:37:46 | 48.36573 | 3.45852 | 124° | 111km/h | 12831m | -14.5m/s | -61.5°C | 0% | 0hPa | 4.9V | 00:00:00 | 00:00:00 | 00:00:00 | |
| DB0UT-7 | 2026-09-03 13:37:16 | 48.37019 | 3.44777 | 120° | 120km/h | 13252m | -14.8m/s | -64.4°C | 0% | 0hPa | 4.9V | 00:00:00 | 00:00:00 | 00:00:00 | |
| DB0UT-7 | 2026-09-03 13:36:32 | 48.37790 | 3.43115 | 129° | 99km/h | 13773m | -8.4m/s | -63.1°C | 0% | 0hPa | 4.9V | 00:00:00 | 00:00:00 | 00:00:00 | |
| DB0UT-7 | 2026-09-03 13:36:02 | 48.38264 | 3.42209 | 122° | 102km/h | 14030m | -8.6m/s | -60.9°C | 0% | 0hPa | 4.9V | 00:00:00 | 00:00:00 | 00:00:00 | |
| DB0UT-7 | 2026-09-03 13:35:32 | 48.38608 | 3.41173 | 114° | 89km/h | 14291m | -8.7m/s | -59.9°C | 0% | 0hPa | 4.9V | 00:00:00 | 00:00:00 | 00:00:00 | |
| DB0UT-7 | 2026-09-03 13:34:57 | 48.38980 | 3.40087 | 116° | 84km/h | 14599m | -8.6m/s | -59.4°C | 0% | 0hPa | 4.9V | 00:00:00 | 00:00:00 | 00:00:00 | |
| DB0UT-7 | 2026-09-03 13:34:26 | 48.39231 | 3.39178 | 113° | 80km/h | 14874m | -9.0m/s | -59.3°C | 0% | 0hPa | 4.9V | 00:00:00 | 00:00:00 | 00:00:00 | |
| DB0UT-7 | 2026-09-03 13:33:56 | 48.39432 | 3.38323 | 109° | 78km/h | 15146m | -9.1m/s | -58.7°C | 0% | 0hPa | 4.9V | 00:00:00 | 00:00:00 | 00:00:00 | |
| DB0UT-7 | 2026-09-03 13:33:26 | 48.39640 | 3.37476 | 114° | 77km/h | 15424m | -9.3m/s | -60.0°C | 0% | 0hPa | 4.9V | 00:00:00 | 00:00:00 | 00:00:00 | |
| DB0UT-7 | 2026-09-03 13:32:56 | 48.39886 | 3.36704 | 122° | 73km/h | 15706m | -9.5m/s | -59.1°C | 0% | 0hPa | 4.9V | 00:00:00 | 00:00:00 | 00:00:00 | |
| DB0UT-7 | 2026-09-03 13:32:26 | 48.40185 | 3.36016 | 116° | 73km/h | 15991m | -9.5m/s | -58.5°C | 0% | 0hPa | 4.9V | 00:00:00 | 00:00:00 | 00:00:00 | |
| DB0UT-7 | 2026-09-03 13:31:56 | 48.40414 | 3.35253 | 121° | 66km/h | 16280m | -9.6m/s | -58.6°C | 0% | 0hPa | 5.0V | 00:00:00 | 00:00:00 | 00:00:00 | |
| DB0UT-7 | 2026-09-03 13:31:24 | 48.40703 | 3.34600 | 125° | 57km/h | 16589m | -9.8m/s | -57.5°C | 0% | 0hPa | 5.0V | 00:00:00 | 00:00:00 | 00:00:00 | |
| DB0UT-7 | 2026-09-03 13:30:53 | 48.40933 | 3.34023 | 116° | 64km/h | 16894m | -9.9m/s | -57.8°C | 0% | 0hPa | 5.0V | 00:00:00 | 00:00:00 | 00:00:00 | |
| DB0UT-7 | 2026-09-03 13:30:23 | 48.41188 | 3.33411 | 129° | 44km/h | 17196m | -10.2m/s | -57.2°C | 0% | 0hPa | 5.0V | 00:00:00 | 00:00:00 | 00:00:00 | |
| DB0UT-7 | 2026-09-03 13:29:53 | 48.41377 | 3.33002 | 108° | 40km/h | 17508m | -10.6m/s | -56.9°C | 0% | 0hPa | 5.0V | 00:00:00 | 00:00:00 | 00:00:00 | |
| DB0UT-7 | 2026-09-03 13:29:21 | 48.41506 | 3.32545 | 113° | 35km/h | 17851m | -10.8m/s | -56.6°C | 0% | 0hPa | 5.0V | 00:00:00 | 00:00:00 | 00:00:00 | |
| DB0UT-7 | 2026-09-03 13:28:51 | 48.41572 | 3.32152 | 112° | 27km/h | 18171m | -10.8m/s | -56.3°C | 0% | 0hPa | 5.0V | 00:00:00 | 00:00:00 | 00:00:00 | |
| DB0UT-7 | 2026-09-03 13:28:21 | 48.41606 | 3.31870 | 89° | 35km/h | 18498m | -10.8m/s | -56.2°C | 0% | 0hPa | 5.0V | 00:00:00 | 00:00:00 | 00:00:00 | |
| DB0UT-7 | 2026-09-03 13:27:48 | 48.41694 | 3.31480 | 127° | 26km/h | 18867m | -11.3m/s | -54.5°C | 0% | 0hPa | 5.0V | 00:00:00 | 00:00:00 | 00:00:00 | |
| DB0UT-7 | 2026-09-03 13:27:18 | 48.41755 | 3.31207 | 130° | 20km/h | 19205m | -11.3m/s | -53.8°C | 0% | 0hPa | 5.0V | 00:00:00 | 00:00:00 | 00:00:00 | |
| DB0UT-7 | 2026-09-03 13:26:48 | 48.41840 | 3.31031 | 122° | 15km/h | 19554m | -11.8m/s | -53.9°C | 0% | 0hPa | 5.0V | 00:00:00 | 00:00:00 | 00:00:00 | |
| DB0UT-7 | 2026-09-03 13:26:18 | 48.41909 | 3.30908 | 45° | 18km/h | 19913m | -12.2m/s | -54.3°C | 0% | 0hPa | 5.0V | 00:00:00 | 00:00:00 | 00:00:00 | |
| DB0UT-7 | 2026-09-03 13:25:48 | 48.41865 | 3.30729 | 104° | 20km/h | 20286m | -12.7m/s | -53.9°C | 0% | 0hPa | 5.0V | 00:00:00 | 00:00:00 | 00:00:00 | |
| DB0UT-7 | 2026-09-03 13:25:18 | 48.41832 | 3.30533 | 64° | 27km/h | 20683m | -13.6m/s | -52.3°C | 0% | 0hPa | 5.0V | 00:00:00 | 00:00:00 | 00:00:00 | |
| DB0UT-7 | 2026-09-03 13:24:48 | 48.41814 | 3.30296 | 60° | 27km/h | 21096m | -13.8m/s | -53.0°C | 0% | 0hPa | 5.0V | 00:00:00 | 00:00:00 | 00:00:00 | |
| DB0UT-7 | 2026-09-03 13:24:18 | 48.41693 | 3.30069 | 97° | 18km/h | 21503m | -13.3m/s | -53.7°C | 0% | 0hPa | 5.0V | 00:00:00 | 00:00:00 | 00:00:00 | |
| DB0UT-7 | 2026-09-03 13:23:48 | 48.41683 | 3.29880 | 62° | 31km/h | 22065m | -21.1m/s | -52.9°C | 0% | 0hPa | 5.0V | 00:00:00 | 00:00:00 | 00:00:00 | |
| DB0UT-7 | 2026-09-03 13:23:18 | 48.41698 | 3.29549 | 110° | 16km/h | 22582m | -14.2m/s | -52.3°C | 0% | 0hPa | 5.0V | 00:00:00 | 00:00:00 | 00:00:00 | |
| DB0UT-7 | 2026-09-03 13:22:47 | 48.41725 | 3.29374 | 124° | 24km/h | 23030m | -14.8m/s | -51.3°C | 0% | 0hPa | 5.0V | 00:00:00 | 00:00:00 | 00:00:00 | |
| DB0UT-7 | 2026-09-03 13:22:17 | 48.41866 | 3.29221 | 350° | 13km/h | 23480m | -15.0m/s | -51.6°C | 0% | 0hPa | 5.0V | 00:00:00 | 00:00:00 | 00:00:00 | |
| DB0UT-7 | 2026-09-03 13:21:47 | 48.41943 | 3.29178 | 188° | 13km/h | 23944m | -15.7m/s | -50.4°C | 0% | 0hPa | 5.0V | 00:00:00 | 00:00:00 | 00:00:00 | |
| DB0UT-7 | 2026-09-03 13:21:16 | 48.42021 | 3.29275 | 249° | 9km/h | 24436m | -16.3m/s | -49.7°C | 0% | 0hPa | 5.0V | 00:00:00 | 00:00:00 | 00:00:00 | |
| DB0UT-7 | 2026-09-03 13:20:46 | 48.42021 | 3.29362 | 333° | 13km/h | 24940m | -17.2m/s | -49.4°C | 0% | 0hPa | 5.0V | 00:00:00 | 00:00:00 | 00:00:00 | |
| DB0UT-7 | 2026-09-03 13:20:16 | 48.41989 | 3.29482 | 286° | 13km/h | 25470m | -18.2m/s | -51.0°C | 0% | 0hPa | 5.0V | 00:00:00 | 00:00:00 | 00:00:00 | |
| DB0UT-7 | 2026-09-03 13:19:46 | 48.41904 | 3.29507 | 350° | 9km/h | 26032m | -19.3m/s | -49.5°C | 0% | 0hPa | 5.1V | 00:00:00 | 00:00:00 | 00:00:00 | |
| DO1YAY-16 | 2026-09-03 13:19:16 | 48.41893 | 3.29468 | 333° | 7km/h | 26650m | -20.8m/s | -47.7°C | 0.0% | -1.0hPa | 5.1V | 00:00:00 | 00:00:00 | 00:00:00 | |
| DB0UT-7 | 2026-09-03 13:18:46 | 48.41877 | 3.29449 | 225° | 11km/h | 27270m | -22.2m/s | -46.3°C | 0% | 0hPa | 5.1V | 00:00:00 | 00:00:00 | 00:00:00 | |
| DO1YAY-16 | 2026-09-03 13:18:45 | 48.41876 | 3.29453 | 305° | 7km/h | 27314m | -22.2m/s | -46.2°C | 0.0% | -1.0hPa | 5.1V | 00:00:00 | 00:00:00 | 00:00:00 | |
| DB0UT-7 | 2026-09-03 13:18:17 | 48.41829 | 3.29504 | 162° | 11km/h | 27957m | -24.0m/s | -45.2°C | 0% | 0hPa | 5.1V | 00:00:00 | 00:00:00 | 00:00:00 | |
| DO1YAY-16 | 2026-09-03 13:18:14 | 48.41828 | 3.29500 | 61° | 7km/h | 28030m | -23.9m/s | -45.1°C | 0.0% | -1.0hPa | 5.1V | 00:00:00 | 00:00:00 | 00:00:00 | |
| DB0UT-7 | 2026-09-03 13:17:46 | 48.41794 | 3.29390 | 82° | 9km/h | 28698m | -25.7m/s | -45.3°C | 0% | 0hPa | 5.1V | 00:00:00 | 00:00:00 | 00:00:00 | |
| DO1YAY-16 | 2026-09-03 13:17:43 | 48.41800 | 3.29365 | 123° | 20km/h | 28801m | -25.9m/s | -45.2°C | 0.0% | -1.0hPa | 5.1V | 00:00:00 | 00:00:00 | 00:00:00 | |
| DB0UT-7 | 2026-09-03 13:17:16 | 48.41827 | 3.29282 | 64° | 9km/h | 29496m | -27.7m/s | -44.3°C | 0% | 0hPa | 5.1V | 00:00:00 | 00:00:00 | 00:00:00 | |
| DJ2DS-15 | 2026-09-03 13:17:01 | 48.41834 | 3.29224 | 96° | 16km/h | 29919m | -29.5m/s | -42.2°C | 0% | 0hPa | 5.1V | 00:00:00 | 00:00:00 | 00:00:00 | |
| DB0UT-7 | 2026-09-03 13:16:46 | 48.41830 | 3.29186 | 85° | 15km/h | 30361m | -30.1m/s | -41.9°C | 0% | 0hPa | 5.1V | 00:00:00 | 00:00:00 | 00:00:00 | |
| DO1YAY-16 | 2026-09-03 13:16:41 | 48.41827 | 3.29158 | 76° | 13km/h | 30543m | -30.9m/s | -42.1°C | 0.0% | -1.0hPa | 5.1V | 00:00:00 | 00:00:00 | 00:00:00 | |
| DJ2DS-15 | 2026-09-03 13:16:22 | 48.41811 | 3.29048 | 90° | 16km/h | 31105m | -31.2m/s | -40.8°C | 0% | 0hPa | 5.1V | 00:00:00 | 00:00:00 | 00:00:00 | |
| DB0UT-7 | 2026-09-03 13:16:16 | 48.41822 | 3.29002 | 128° | 13km/h | 31297m | -32.2m/s | -40.8°C | 0% | 0hPa | 5.1V | 00:00:00 | 00:00:00 | 00:00:00 | |
| DJ2DS-15 | 2026-09-03 13:16:02 | 48.41845 | 3.28944 | 148° | 16km/h | 31762m | -33.9m/s | -39.7°C | 0% | 0hPa | 5.1V | 00:00:00 | 00:00:00 | 00:00:00 | |
| DB0UT-7 | 2026-09-03 13:15:46 | 48.41884 | 3.28899 | 80° | 16km/h | 32316m | -35.4m/s | -39.3°C | 0% | 0hPa | 5.1V | 00:00:00 | 00:00:00 | 00:00:00 | |
| DO1YAY-16 | 2026-09-03 13:15:39 | 48.41892 | 3.28843 | 126° | 27km/h | 32603m | -35.9m/s | -38.1°C | 0.0% | -1.0hPa | 5.1V | 00:00:00 | 00:00:00 | 00:00:00 | |
| DJ2DS-15 | 2026-09-03 13:15:20 | 48.41949 | 3.28776 | 189° | 9km/h | 33316m | -38.1m/s | -35.2°C | 0% | 0hPa | 5.1V | 00:00:00 | 00:00:00 | 00:00:00 | |
| DB0UT-7 | 2026-09-03 13:15:16 | 48.41949 | 3.28781 | 299° | 11km/h | 33432m | -38.8m/s | -34.9°C | 0% | 0hPa | 5.1V | 00:00:00 | 00:00:00 | 00:00:00 | |
| DO1YAY-16 | 2026-09-03 13:15:08 | 48.41944 | 3.28768 | 26° | 9km/h | 33787m | -39.5m/s | -34.2°C | 0.0% | -1.0hPa | 5.1V | 00:00:00 | 00:00:00 | 00:00:00 | |
| DJ2DS-15 | 2026-09-03 13:14:59 | 48.41924 | 3.28744 | 13° | 13km/h | 34103m | -38.8m/s | -34.2°C | 0% | 0hPa | 5.1V | 00:00:00 | 00:00:00 | 00:00:00 | |
| DB0UT-7 | 2026-09-03 13:14:46 | 48.41914 | 3.28771 | 296° | 24km/h | 34697m | -37.1m/s | -32.4°C | 0% | 0hPa | 5.1V | 00:00:00 | 00:00:00 | 00:00:00 | |
| DJ2DS-15 | 2026-09-03 13:14:39 | 48.41904 | 3.28732 | 350° | 22km/h | 34750m | 7.4m/s | -32.6°C | 0% | 0hPa | 5.1V | 00:00:00 | 00:00:00 | 00:00:00 | |
| DJ2DS-15 | 2026-09-03 13:14:19 | 48.41957 | 3.28720 | 151° | 24km/h | 34626m | 6.4m/s | -32.7°C | 0% | 0hPa | 5.1V | 00:00:00 | 00:00:00 | 00:00:00 | |
| DB0UT-7 | 2026-09-03 13:14:16 | 48.41962 | 3.28738 | 273° | 20km/h | 34604m | 4.7m/s | -32.6°C | 0% | 0hPa | 5.1V | 00:00:00 | 00:00:00 | 00:00:00 | |
| DO1YAY-16 | 2026-09-03 13:14:05 | 48.41960 | 3.28753 | 289° | 9km/h | 34538m | 4.7m/s | -32.6°C | 0.0% | -1.0hPa | 5.1V | 00:00:00 | 00:00:00 | 00:00:00 | |
| DJ2DS-15 | 2026-09-03 13:13:59 | 48.41961 | 3.28708 | 95° | 22km/h | 34505m | 5.5m/s | -32.8°C | 0% | 0hPa | 5.1V | 00:00:00 | 00:00:00 | 00:00:00 | |
| DB0UT-7 | 2026-09-03 13:13:46 | 48.41956 | 3.28705 | 294° | 24km/h | 34427m | 4.7m/s | -33.5°C | 0% | 0hPa | 5.1V | 00:00:00 | 00:00:00 | 00:00:00 | |
| DJ2DS-15 | 2026-09-03 13:13:39 | 48.41951 | 3.28688 | 72° | 24km/h | 34388m | 4.3m/s | -33.6°C | 0% | 0hPa | 5.1V | 00:00:00 | 00:00:00 | 00:00:00 | |
| DJ2DS-15 | 2026-09-03 13:13:19 | 48.41909 | 3.28612 | 82° | 27km/h | 34271m | 3.6m/s | -33.8°C | 0% | 0hPa | 5.1V | 00:00:00 | 00:00:00 | 00:00:00 | |
| DB0UT-7 | 2026-09-03 13:13:16 | 48.41898 | 3.28602 | 325° | 27km/h | 34250m | 7.7m/s | -33.6°C | 0% | 0hPa | 5.1V | 00:00:00 | 00:00:00 | 00:00:00 | |
| DO1YAY-16 | 2026-09-03 13:13:03 | 48.41837 | 3.28586 | 349° | 20km/h | 34177m | 5.7m/s | -33.9°C | 0.0% | -1.0hPa | 5.1V | 00:00:00 | 00:00:00 | 00:00:00 | |
| DJ2DS-15 | 2026-09-03 13:12:59 | 48.41824 | 3.28550 | 69° | 27km/h | 34153m | 2.8m/s | -34.0°C | 0% | 0hPa | 5.1V | 00:00:00 | 00:00:00 | 00:00:00 | |
| DB0UT-7 | 2026-09-03 13:12:46 | 48.41773 | 3.28506 | 336° | 24km/h | 34069m | 8.0m/s | -33.8°C | 0% | 0hPa | 5.1V | 00:00:00 | 00:00:00 | 00:00:00 | |
| DJ2DS-15 | 2026-09-03 13:12:39 | 48.41749 | 3.28495 | 69° | 22km/h | 34027m | 4.9m/s | -34.0°C | 0% | 0hPa | 5.1V | 00:00:00 | 00:00:00 | 00:00:00 | |
| DJ2DS-15 | 2026-09-03 13:12:19 | 48.41691 | 3.28429 | 87° | 24km/h | 33906m | 3.4m/s | -33.7°C | 0% | 0hPa | 5.1V | 00:00:00 | 00:00:00 | 00:00:00 | |
| DB0UT-7 | 2026-09-03 13:12:16 | 48.41684 | 3.28417 | 323° | 20km/h | 33884m | 8.5m/s | -33.6°C | 0% | 0hPa | 5.1V | 00:00:00 | 00:00:00 | 00:00:00 | |
| DO1YAY-16 | 2026-09-03 13:12:01 | 48.41663 | 3.28389 | 99° | 29km/h | 33784m | 6.0m/s | -34.0°C | 0.0% | -1.0hPa | 5.1V | 00:00:00 | 00:00:00 | 00:00:00 | |
| DJ2DS-15 | 2026-09-03 13:11:59 | 48.41665 | 3.28378 | 106° | 22km/h | 33779m | 4.6m/s | -34.0°C | 0% | 0hPa | 5.1V | 00:00:00 | 00:00:00 | 00:00:00 | |
| DB0UT-7 | 2026-09-03 13:11:46 | 48.41656 | 3.28356 | 258° | 16km/h | 33697m | 7.5m/s | -33.8°C | 0% | 0hPa | 5.1V | 00:00:00 | 00:00:00 | 00:00:00 | |
| DJ2DS-15 | 2026-09-03 13:11:39 | 48.41646 | 3.28349 | 105° | 16km/h | 33656m | 4.6m/s | -34.1°C | 0% | 0hPa | 5.1V | 00:00:00 | 00:00:00 | 00:00:00 | |
| DB0UT-7 | 2026-09-03 13:11:16 | 48.41627 | 3.28381 | 275° | 18km/h | 33507m | 5.5m/s | -34.2°C | 0% | 0hPa | 5.1V | 00:00:00 | 00:00:00 | 00:00:00 | |
| DJ2DS-15 | 2026-09-03 13:11:12 | 48.41629 | 3.28366 | 85° | 16km/h | 33479m | 4.5m/s | -34.3°C | 0% | 0hPa | 5.1V | 00:00:00 | 00:00:00 | 00:00:00 | |
| DJ2DS-15 | 2026-09-03 13:11:11 | 48.41626 | 3.28362 | 316° | 11km/h | 33466m | 8.1m/s | -34.4°C | 0.0% | -1.0hPa | 5.1V | 00:00:00 | 00:00:00 | 00:00:00 | |
| DJ2DS-15 | 2026-09-03 13:10:48 | 48.41636 | 3.28353 | 242° | 13km/h | 33327m | 5.1m/s | -34.7°C | 0% | 0hPa | 5.1V | 00:00:00 | 00:00:00 | 00:00:00 | |
| DB0UT-7 | 2026-09-03 13:10:46 | 48.41641 | 3.28358 | 157° | 16km/h | 33316m | 6.5m/s | -34.8°C | 0% | 0hPa | 5.1V | 00:00:00 | 00:00:00 | 00:00:00 | |
| DJ2DS-15 | 2026-09-03 13:10:27 | 48.41682 | 3.28291 | 137° | 16km/h | 33199m | 7.5m/s | -34.9°C | 0% | 0hPa | 5.1V | 00:00:00 | 00:00:00 | 00:00:00 | |
| DB0UT-7 | 2026-09-03 13:10:16 | 48.41698 | 3.28273 | 122° | 18km/h | 33127m | 6.0m/s | -35.2°C | 0% | 0hPa | 5.1V | 00:00:00 | 00:00:00 | 00:00:00 | |
| DJ2DS-15 | 2026-09-03 13:09:59 | 48.41730 | 3.28242 | 206° | 18km/h | 33021m | 7.0m/s | -35.5°C | 0% | 0hPa | 5.1V | 00:00:00 | 00:00:00 | 00:00:00 | |
| DB0UT-7 | 2026-09-03 13:09:46 | 48.41775 | 3.28228 | 158° | 26km/h | 32937m | 7.2m/s | -35.7°C | 0% | 0hPa | 5.1V | 00:00:00 | 00:00:00 | 00:00:00 | |
| DJ2DS-15 | 2026-09-03 13:09:38 | 48.41805 | 3.28218 | 146° | 29km/h | 32884m | 5.6m/s | -35.8°C | 0% | 0hPa | 5.1V | 00:00:00 | 00:00:00 | 00:00:00 | |
| DJ2DS-15 | 2026-09-03 13:09:18 | 48.41900 | 3.28114 | 140° | 33km/h | 32757m | 6.5m/s | -36.7°C | 0% | 0hPa | 5.1V | 00:00:00 | 00:00:00 | 00:00:00 | |
| DB0UT-7 | 2026-09-03 13:09:16 | 48.41916 | 3.28101 | 164° | 29km/h | 32745m | 5.7m/s | -36.9°C | 0% | 0hPa | 5.1V | 00:00:00 | 00:00:00 | 00:00:00 | |
| DJ2DS-15 | 2026-09-03 13:08:58 | 48.42001 | 3.27940 | 101° | 26km/h | 32636m | 6.9m/s | -37.0°C | 0% | 0hPa | 5.1V | 00:00:00 | 00:00:00 | 00:00:00 | |
| DB0UT-7 | 2026-09-03 13:08:46 | 48.42016 | 3.27852 | 337° | 22km/h | 32559m | 5.6m/s | -37.6°C | 0% | 0hPa | 5.1V | 00:00:00 | 00:00:00 | 00:00:00 | |
| DJ2DS-15 | 2026-09-03 13:08:36 | 48.42030 | 3.27784 | 20° | 18km/h | 32495m | 5.8m/s | -37.5°C | 0% | 0hPa | 5.1V | 00:00:00 | 00:00:00 | 00:00:00 | |
| DB0UT-7 | 2026-09-03 13:08:16 | 48.41988 | 3.27692 | 76° | 16km/h | 32366m | 7.4m/s | -38.0°C | 0% | 0hPa | 5.1V | 00:00:00 | 00:00:00 | 00:00:00 | |
| DJ2DS-15 | 2026-09-03 13:08:10 | 48.41978 | 3.27653 | 0° | 24km/h | 32330m | 5.3m/s | -38.4°C | 0.0% | -1.0hPa | 5.1V | 00:00:00 | 00:00:00 | 00:00:00 | |
| DJ2DS-15 | 2026-09-03 13:07:56 | 48.41971 | 3.27634 | 171° | 18km/h | 32245m | 6.0m/s | -38.9°C | 0% | 0hPa | 5.1V | 00:00:00 | 00:00:00 | 00:00:00 | |
| DJ2DS-15 | 2026-09-03 13:07:36 | 48.42009 | 3.27575 | 142° | 16km/h | 32126m | 4.7m/s | -39.2°C | 0% | 0hPa | 5.1V | 00:00:00 | 00:00:00 | 00:00:00 | |
| DJ2DS-15 | 2026-09-03 13:07:16 | 48.42052 | 3.27542 | 65° | 18km/h | 32002m | 6.9m/s | -39.2°C | 0% | 0hPa | 5.1V | 00:00:00 | 00:00:00 | 00:00:00 | |
| DB0UT-7 | 2026-09-03 13:07:15 | 48.42051 | 3.27540 | 27° | 18km/h | 31995m | 6.2m/s | -39.2°C | 0% | 0hPa | 5.1V | 00:00:00 | 00:00:00 | 00:00:00 | |
| DJ2DS-15 | 2026-09-03 13:06:56 | 48.42100 | 3.27494 | 268° | 15km/h | 31880m | 5.4m/s | -39.6°C | 0% | 0hPa | 5.1V | 00:00:00 | 00:00:00 | 00:00:00 | |
| DB0UT-7 | 2026-09-03 13:06:46 | 48.42124 | 3.27456 | 146° | 16km/h | 31810m | 5.9m/s | -39.5°C | 0% | 0hPa | 5.1V | 00:00:00 | 00:00:00 | 00:00:00 | |
| DJ2DS-15 | 2026-09-03 13:06:36 | 48.42125 | 3.27424 | 123° | 18km/h | 31755m | 4.6m/s | -39.6°C | 0% | 0hPa | 5.1V | 00:00:00 | 00:00:00 | 00:00:00 | |
| DJ2DS-15 | 2026-09-03 13:06:16 | 48.42120 | 3.27364 | 120° | 18km/h | 31631m | 7.5m/s | -40.0°C | 0% | 0hPa | 5.1V | 00:00:00 | 00:00:00 | 00:00:00 | |
| DB0UT-7 | 2026-09-03 13:06:15 | 48.42121 | 3.27363 | 161° | 16km/h | 31624m | 6.3m/s | -40.0°C | 0% | 0hPa | 5.1V | 00:00:00 | 00:00:00 | 00:00:00 | |
| DB0UT-7 | 2026-09-03 13:05:45 | 48.42120 | 3.27262 | 171° | 18km/h | 31442m | 6.3m/s | -40.5°C | 0% | 0hPa | 5.1V | 00:00:00 | 00:00:00 | 00:00:00 | |
| DJ2DS-15 | 2026-09-03 13:05:36 | 48.42140 | 3.27215 | 127° | 22km/h | 31383m | 7.0m/s | -40.6°C | 0% | 0hPa | 5.1V | 00:00:00 | 00:00:00 | 00:00:00 | |
| DB0UT-7 | 2026-09-03 13:05:15 | 48.42166 | 3.27053 | 98° | 22km/h | 31250m | 6.4m/s | -40.5°C | 0% | 0hPa | 5.1V | 00:00:00 | 00:00:00 | 00:00:00 | |
| DJ2DS-15 | 2026-09-03 13:05:10 | 48.42158 | 3.26981 | 92° | 27km/h | 31205m | 7.0m/s | -40.1°C | 0.0% | -1.0hPa | 5.1V | 00:00:00 | 00:00:00 | 00:00:00 | |
| DB0UT-7 | 2026-09-03 13:04:45 | 48.42138 | 3.26831 | 30° | 20km/h | 31061m | 5.4m/s | -40.5°C | 0% | 0hPa | 5.1V | 00:00:00 | 00:00:00 | 00:00:00 | |
| DJ2DS-15 | 2026-09-03 13:04:24 | 48.42110 | 3.26665 | 88° | 16km/h | 30930m | 5.6m/s | -41.0°C | 0% | 0hPa | 5.1V | 00:00:00 | 00:00:00 | 00:00:00 | |
| DB0UT-7 | 2026-09-03 13:04:15 | 48.42105 | 3.26614 | 47° | 13km/h | 30876m | 5.5m/s | -41.6°C | 0% | 0hPa | 5.1V | 00:00:00 | 00:00:00 | 00:00:00 | |
| DJ2DS-15 | 2026-09-03 13:04:04 | 48.42109 | 3.26585 | 332° | 13km/h | 30808m | 6.5m/s | -41.9°C | 0% | 0hPa | 5.1V | 00:00:00 | 00:00:00 | 00:00:00 | |
| DB0UT-7 | 2026-09-03 13:03:45 | 48.42092 | 3.26549 | 93° | 15km/h | 30695m | 7.2m/s | -42.2°C | 0% | 0hPa | 5.2V | 00:00:00 | 00:00:00 | 00:00:00 | |
| DJ2DS-15 | 2026-09-03 13:03:44 | 48.42092 | 3.26542 | 93° | 15km/h | 30688m | 6.7m/s | -42.2°C | 0% | 0hPa | 5.2V | 00:00:00 | 00:00:00 | 00:00:00 | |
| DJ2DS-15 | 2026-09-03 13:03:21 | 48.42098 | 3.26447 | 259° | 16km/h | 30553m | 4.4m/s | -42.1°C | 0% | 0hPa | 5.2V | 00:00:00 | 00:00:00 | 00:00:00 | |
| DB0UT-7 | 2026-09-03 13:03:16 | 48.42094 | 3.26421 | 91° | 15km/h | 30516m | 6.6m/s | -41.9°C | 0% | 0hPa | 5.2V | 00:00:00 | 00:00:00 | 00:00:00 | |
| DJ2DS-15 | 2026-09-03 13:02:51 | 48.42078 | 3.26323 | 94° | 15km/h | 30374m | 5.0m/s | -42.5°C | 0% | 0hPa | 5.2V | 00:00:00 | 00:00:00 | 00:00:00 | |
| DB0UT-7 | 2026-09-03 13:02:45 | 48.42080 | 3.26318 | 304° | 22km/h | 30336m | 5.3m/s | -42.3°C | 0% | 0hPa | 5.2V | 00:00:00 | 00:00:00 | 00:00:00 | |
| DJ2DS-15 | 2026-09-03 13:02:31 | 48.42070 | 3.26326 | 233° | 22km/h | 30253m | 5.4m/s | -42.6°C | 0% | 0hPa | 5.2V | 00:00:00 | 00:00:00 | 00:00:00 | |
| DB0UT-7 | 2026-09-03 13:02:15 | 48.42089 | 3.26305 | 72° | 13km/h | 30158m | 6.1m/s | -42.3°C | 0% | 0hPa | 5.2V | 00:00:00 | 00:00:00 | 00:00:00 | |
| DJ2DS-15 | 2026-09-03 13:02:11 | 48.42089 | 3.26305 | 170° | 13km/h | 30135m | 6.3m/s | -42.4°C | 0% | 0hPa | 5.2V | 00:00:00 | 00:00:00 | 00:00:00 | |
| DJ2DS-15 | 2026-09-03 13:02:10 | 48.42092 | 3.26300 | 117° | 13km/h | 30122m | 6.1m/s | -42.7°C | 0.0% | -1.0hPa | 5.2V | 00:00:00 | 00:00:00 | 00:00:00 | |
| DJ2DS-15 | 2026-09-03 13:01:51 | 48.42114 | 3.26216 | 106° | 16km/h | 30011m | 6.8m/s | -42.4°C | 0% | 0hPa | 5.2V | 00:00:00 | 00:00:00 | 00:00:00 | |
| DB0UT-7 | 2026-09-03 13:01:45 | 48.42133 | 3.26182 | 110° | 18km/h | 29975m | 5.6m/s | -42.4°C | 0% | 0hPa | 5.2V | 00:00:00 | 00:00:00 | 00:00:00 | |
| DB0UT-7 | 2026-09-03 13:01:15 | 48.42184 | 3.26021 | 42° | 11km/h | 29793m | 6.1m/s | -43.4°C | 0% | 0hPa | 5.2V | 00:00:00 | 00:00:00 | 00:00:00 | |
| DB0UT-7 | 2026-09-03 13:00:43 | 48.42166 | 3.25923 | 183° | 13km/h | 29589m | 5.8m/s | -44.3°C | 0% | 0hPa | 5.2V | 00:00:00 | 00:00:00 | 00:00:00 | |
| DB0UT-7 | 2026-09-03 13:00:13 | 48.42190 | 3.25825 | 84° | 15km/h | 29399m | 6.0m/s | -44.6°C | 0% | 0hPa | 5.2V | 00:00:00 | 00:00:00 | 00:00:00 | |
| DB0UT-7 | 2026-09-03 12:59:43 | 48.42230 | 3.25719 | 147° | 15km/h | 29216m | 7.2m/s | -44.6°C | 0% | 0hPa | 5.2V | 00:00:00 | 00:00:00 | 00:00:00 | |
| DB0UT-7 | 2026-09-03 12:59:13 | 48.42273 | 3.25594 | 89° | 22km/h | 29035m | 5.5m/s | -44.7°C | 0% | 0hPa | 5.2V | 00:00:00 | 00:00:00 | 00:00:00 | |
| DB0UT-7 | 2026-09-03 12:58:43 | 48.42330 | 3.25358 | 117° | 16km/h | 28853m | 5.9m/s | -44.7°C | 0% | 0hPa | 5.2V | 00:00:00 | 00:00:00 | 00:00:00 | |
| DB0UT-7 | 2026-09-03 12:58:13 | 48.42355 | 3.25204 | 57° | 13km/h | 28676m | 7.1m/s | -44.6°C | 0% | 0hPa | 5.2V | 00:00:00 | 00:00:00 | 00:00:00 | |
| DB0UT-7 | 2026-09-03 12:57:43 | 48.42321 | 3.25088 | 109° | 16km/h | 28498m | 6.3m/s | -44.1°C | 0% | 0hPa | 5.2V | 00:00:00 | 00:00:00 | 00:00:00 | |
| DB0UT-7 | 2026-09-03 12:57:13 | 48.42287 | 3.24962 | 118° | 26km/h | 28317m | 6.0m/s | -43.9°C | 0% | 0hPa | 5.2V | 00:00:00 | 00:00:00 | 00:00:00 | |
| DB0UT-7 | 2026-09-03 12:56:43 | 48.42281 | 3.24779 | 15° | 9km/h | 28135m | 6.9m/s | -44.3°C | 0% | 0hPa | 5.2V | 00:00:00 | 00:00:00 | 00:00:00 | |
| DB0UT-7 | 2026-09-03 12:56:13 | 48.42313 | 3.24733 | 145° | 9km/h | 27951m | 5.6m/s | -44.7°C | 0% | 0hPa | 5.2V | 00:00:00 | 00:00:00 | 00:00:00 | |
| DB0UT-7 | 2026-09-03 12:55:43 | 48.42296 | 3.24722 | 250° | 16km/h | 27774m | 2.5m/s | -45.2°C | 0% | 0hPa | 5.2V | 00:00:00 | 00:00:00 | 00:00:00 | |
| DB0UT-7 | 2026-09-03 12:55:13 | 48.42234 | 3.24809 | 258° | 15km/h | 27587m | 5.2m/s | -45.3°C | 0% | 0hPa | 5.2V | 00:00:00 | 00:00:00 | 00:00:00 | |
| DB0UT-7 | 2026-09-03 12:54:43 | 48.42229 | 3.24931 | 194° | 11km/h | 27405m | 5.6m/s | -45.2°C | 0% | 0hPa | 5.2V | 00:00:00 | 00:00:00 | 00:00:00 | |
| DB0UT-7 | 2026-09-03 12:54:13 | 48.42255 | 3.24942 | 154° | 13km/h | 27231m | 5.6m/s | -45.9°C | 0% | 0hPa | 5.2V | 00:00:00 | 00:00:00 | 00:00:00 | |
| DB0UT-7 | 2026-09-03 12:53:41 | 48.42270 | 3.24838 | 24° | 11km/h | 27049m | 5.9m/s | -46.2°C | 0% | 0hPa | 5.2V | 00:00:00 | 00:00:00 | 00:00:00 | |
| DB0UT-7 | 2026-09-03 12:53:11 | 48.42247 | 3.24771 | 14° | 11km/h | 26878m | 6.9m/s | -46.5°C | 0% | 0hPa | 5.2V | 00:00:00 | 00:00:00 | 00:00:00 | |
| DB0UT-7 | 2026-09-03 12:52:41 | 48.42197 | 3.24768 | 28° | 11km/h | 26708m | 5.9m/s | -47.6°C | 0% | 0hPa | 5.2V | 00:00:00 | 00:00:00 | 00:00:00 | |
| DB0UT-7 | 2026-09-03 12:52:11 | 48.42208 | 3.24775 | 203° | 18km/h | 26536m | 4.1m/s | -47.9°C | 0% | 0hPa | 5.2V | 00:00:00 | 00:00:00 | 00:00:00 | |
| DB0UT-7 | 2026-09-03 12:51:42 | 48.42241 | 3.24620 | 92° | 15km/h | 26367m | 5.6m/s | -48.2°C | 0% | 0hPa | 5.2V | 00:00:00 | 00:00:00 | 00:00:00 | |
| DB0UT-7 | 2026-09-03 12:51:11 | 48.42223 | 3.24510 | 321° | 11km/h | 26195m | 6.3m/s | -48.8°C | 0% | 0hPa | 5.3V | 00:00:00 | 00:00:00 | 00:00:00 | |
| DB0UT-7 | 2026-09-03 12:50:41 | 48.42140 | 3.24487 | 18° | 15km/h | 26021m | 6.0m/s | -49.3°C | 0% | 0hPa | 5.3V | 00:00:00 | 00:00:00 | 00:00:00 | |
| DB0UT-7 | 2026-09-03 12:50:12 | 48.42038 | 3.24479 | 50° | 20km/h | 25850m | 4.8m/s | -49.5°C | 0% | 0hPa | 5.3V | 00:00:00 | 00:00:00 | 00:00:00 | |
| DM0DOS-11 | 2026-09-03 12:49:52 | 48.41953 | 3.24419 | 21° | 35km/h | 25733m | 7m/s | -49.5°C | 0% | 0hPa | 5.3V | 00:00:00 | 00:00:00 | 00:00:00 | |
| DB0UT-7 | 2026-09-03 12:49:41 | 48.41907 | 3.24412 | 353° | 20km/h | 25679m | 5.3m/s | -49.4°C | 0% | 0hPa | 5.3V | 00:00:00 | 00:00:00 | 00:00:00 | |
| DM0DOS-11 | 2026-09-03 12:49:29 | 48.41852 | 3.24427 | 8° | 31km/h | 25602m | 6.8m/s | -49.5°C | 0% | 0hPa | 5.3V | 00:00:00 | 00:00:00 | 00:00:00 | |
| DM0DOS-11 | 2026-09-03 12:49:14 | 48.41768 | 3.24462 | 308° | 18km/h | 25503m | 6.5m/s | -49.2°C | 0% | 0hPa | 5.3V | 00:00:00 | 00:00:00 | 00:00:00 | |
| DB0UT-7 | 2026-09-03 12:49:11 | 48.41777 | 3.24454 | 345° | 20km/h | 25514m | 4.1m/s | -49.2°C | 0% | 0hPa | 5.3V | 00:00:00 | 00:00:00 | 00:00:00 | |
| DM0DOS-11 | 2026-09-03 12:48:52 | 48.41718 | 3.24600 | 289° | 20km/h | 25383m | 5.8m/s | -49.5°C | 0% | 0hPa | 5.3V | 00:00:00 | 00:00:00 | 00:00:00 | |
| DM0DOS-11 | 2026-09-03 12:48:41 | 48.41722 | 3.24666 | 270° | 22km/h | 25320m | 6.2m/s | -49.3°C | 0% | 0hPa | 5.3V | 00:00:00 | 00:00:00 | 00:00:00 | |
| DB0UT-7 | 2026-09-03 12:48:39 | 48.41719 | 3.24641 | 257° | 15km/h | 25337m | 6.0m/s | -49.4°C | 0% | 0hPa | 5.3V | 00:00:00 | 00:00:00 | 00:00:00 | |
| DM0DOS-11 | 2026-09-03 12:48:30 | 48.41715 | 3.24719 | 270° | 20km/h | 25258m | 6.1m/s | -48.9°C | 0% | 0hPa | 5.3V | 00:00:00 | 00:00:00 | 00:00:00 | |
| DM0DOS-11 | 2026-09-03 12:48:20 | 48.41707 | 3.24755 | 325° | 11km/h | 25204m | 5.2m/s | -48.8°C | 0% | 0hPa | 5.3V | 00:00:00 | 00:00:00 | 00:00:00 | |
| DM0DOS-11 | 2026-09-03 12:48:10 | 48.41701 | 3.24791 | 323° | 11km/h | 25151m | 5.5m/s | -48.8°C | 0% | 0hPa | 5.3V | 00:00:00 | 00:00:00 | 00:00:00 | |
| DB0UT-7 | 2026-09-03 12:48:09 | 48.41710 | 3.24780 | 259° | 9km/h | 25172m | 6.0m/s | -48.7°C | 0% | 0hPa | 5.3V | 00:00:00 | 00:00:00 | 00:00:00 | |
| DM0DOS-11 | 2026-09-03 12:47:53 | 48.41692 | 3.24832 | 317° | 2km/h | 25056m | 5.2m/s | -48.8°C | 0% | 0hPa | 5.3V | 00:00:00 | 00:00:00 | 00:00:00 | |
| DM0DOS-11 | 2026-09-03 12:47:42 | 48.41672 | 3.24844 | 308° | 16km/h | 25002m | 6m/s | -48.6°C | 0% | 0hPa | 5.3V | 00:00:00 | 00:00:00 | 00:00:00 | |
| DB0UT-7 | 2026-09-03 12:47:39 | 48.41676 | 3.24839 | 318° | 11km/h | 25007m | 4.8m/s | -48.7°C | 0% | 0hPa | 5.3V | 00:00:00 | 00:00:00 | 00:00:00 | |
| DM0DOS-11 | 2026-09-03 12:47:31 | 48.41658 | 3.24846 | 293° | 15km/h | 24947m | 4.9m/s | -48.5°C | 0% | 0hPa | 5.3V | 00:00:00 | 00:00:00 | 00:00:00 | |
| DM0DOS-11 | 2026-09-03 12:47:21 | 48.41634 | 3.24861 | 318° | 13km/h | 24885m | 5.5m/s | -48.5°C | 0% | 0hPa | 5.3V | 00:00:00 | 00:00:00 | 00:00:00 | |
| DM0DOS-11 | 2026-09-03 12:47:11 | 48.41616 | 3.24871 | 298° | 9km/h | 24831m | 5.1m/s | -48.5°C | 0% | 0hPa | 5.3V | 00:00:00 | 00:00:00 | 00:00:00 | |
| DB0UT-7 | 2026-09-03 12:47:09 | 48.41618 | 3.24866 | 326° | 9km/h | 24841m | 5.4m/s | -48.4°C | 0% | 0hPa | 5.3V | 00:00:00 | 00:00:00 | 00:00:00 | |
| DB0UT-7 | 2026-09-03 12:46:39 | 48.41575 | 3.24917 | 69° | 11km/h | 24677m | 5.5m/s | -48.5°C | 0% | 0hPa | 5.3V | 00:00:00 | 00:00:00 | 00:00:00 | |
| DB0UT-7 | 2026-09-03 12:46:09 | 48.41599 | 3.24992 | 173° | 13km/h | 24511m | 5.2m/s | -48.9°C | 0% | 0hPa | 5.3V | 00:00:00 | 00:00:00 | 00:00:00 | |
| DB0UT-7 | 2026-09-03 12:45:39 | 48.41643 | 3.25070 | 260° | 13km/h | 24342m | 5.5m/s | -49.8°C | 0% | 0hPa | 5.3V | 00:00:00 | 00:00:00 | 00:00:00 | |
| DB0UT-7 | 2026-09-03 12:45:09 | 48.41673 | 3.25129 | 212° | 16km/h | 24184m | 4.6m/s | -49.9°C | 0% | 0hPa | 5.3V | 00:00:00 | 00:00:00 | 00:00:00 | |
| DB0UT-7 | 2026-09-03 12:44:39 | 48.41771 | 3.25229 | 199° | 24km/h | 24020m | 4.7m/s | -50.0°C | 0% | 0hPa | 5.3V | 00:00:00 | 00:00:00 | 00:00:00 | |
| DB0UT-7 | 2026-09-03 12:44:09 | 48.41941 | 3.25206 | 158° | 16km/h | 23857m | 4.9m/s | -50.9°C | 0% | 0hPa | 5.3V | 00:00:00 | 00:00:00 | 00:00:00 | |
| DB0UT-7 | 2026-09-03 12:43:39 | 48.42027 | 3.25092 | 1° | 11km/h | 23691m | 5.8m/s | -51.0°C | 0% | 0hPa | 5.3V | 00:00:00 | 00:00:00 | 00:00:00 | |
| DB0UT-7 | 2026-09-03 12:43:09 | 48.42013 | 3.25086 | 138° | 15km/h | 23525m | 5.0m/s | -51.3°C | 0% | 0hPa | 5.3V | 00:00:00 | 00:00:00 | 00:00:00 | |
| DB0UT-7 | 2026-09-03 12:42:39 | 48.42094 | 3.24987 | 132° | 31km/h | 23356m | 5.8m/s | -50.8°C | 0% | 0hPa | 5.3V | 00:00:00 | 00:00:00 | 00:00:00 | |
| DB0UT-7 | 2026-09-03 12:42:09 | 48.42280 | 3.24772 | 138° | 27km/h | 23195m | 5.9m/s | -50.6°C | 0% | 0hPa | 5.3V | 00:00:00 | 00:00:00 | 00:00:00 | |
| DB0UT-7 | 2026-09-03 12:41:39 | 48.42378 | 3.24503 | 117° | 22km/h | 23033m | 5.7m/s | -50.6°C | 0% | 0hPa | 5.3V | 00:00:00 | 00:00:00 | 00:00:00 | |
| DB0UT-7 | 2026-09-03 12:41:09 | 48.42434 | 3.24271 | 111° | 15km/h | 22876m | 4.5m/s | -52.0°C | 0% | 0hPa | 5.3V | 00:00:00 | 00:00:00 | 00:00:00 | |
| DB0UT-7 | 2026-09-03 12:40:39 | 48.42425 | 3.24140 | 79° | 18km/h | 22723m | 4.9m/s | -52.4°C | 0% | 0hPa | 5.3V | 00:00:00 | 00:00:00 | 00:00:00 | |
| DB0UT-7 | 2026-09-03 12:40:09 | 48.42453 | 3.23972 | 124° | 31km/h | 22566m | 4.0m/s | -52.9°C | 0% | 0hPa | 5.3V | 00:00:00 | 00:00:00 | 00:00:00 | |
| DB0UT-7 | 2026-09-03 12:39:39 | 48.42490 | 3.23629 | 111° | 37km/h | 22411m | 4.8m/s | -52.9°C | 0% | 0hPa | 5.3V | 00:00:00 | 00:00:00 | 00:00:00 | |
| DB0UT-7 | 2026-09-03 12:39:09 | 48.42418 | 3.23250 | 49° | 27km/h | 22260m | 6.1m/s | -52.9°C | 0% | 0hPa | 5.4V | 00:00:00 | 00:00:00 | 00:00:00 | |
| DM0DOS-11 | 2026-09-03 12:38:51 | 48.42334 | 3.23081 | 43° | 31km/h | 22155m | 4.2m/s | -52.7°C | 0% | 0hPa | 5.4V | 00:00:00 | 00:00:00 | 00:00:00 | |
| DM0DOS-11 | 2026-09-03 12:38:43 | 48.42282 | 3.23015 | 26° | 22km/h | 22104m | 4.4m/s | -52.3°C | 0% | 0hPa | 5.4V | 00:00:00 | 00:00:00 | 00:00:00 | |
| DB0UT-7 | 2026-09-03 12:38:39 | 48.42282 | 3.23015 | 27° | 18km/h | 22104m | 4.3m/s | -52.3°C | 0% | 0hPa | 5.4V | 00:00:00 | 00:00:00 | 00:00:00 | |
| DM0DOS-11 | 2026-09-03 12:38:32 | 48.42232 | 3.22970 | 61° | 24km/h | 22052m | 4.5m/s | -52°C | 0% | 0hPa | 5.4V | 00:00:00 | 00:00:00 | 00:00:00 | |
| DM0DOS-11 | 2026-09-03 12:38:22 | 48.42191 | 3.22938 | 74° | 16km/h | 21988m | 5.8m/s | -51.8°C | 0% | 0hPa | 5.4V | 00:00:00 | 00:00:00 | 00:00:00 | |
| DM0DOS-11 | 2026-09-03 12:38:11 | 48.42162 | 3.22920 | 53° | 7km/h | 21937m | 5.7m/s | -51.6°C | 0% | 0hPa | 5.4V | 00:00:00 | 00:00:00 | 00:00:00 | |
| DB0UT-7 | 2026-09-03 12:38:09 | 48.42166 | 3.22927 | 46° | 9km/h | 21948m | 4.3m/s | -51.6°C | 0% | 0hPa | 5.4V | 00:00:00 | 00:00:00 | 00:00:00 | |
| DM0DOS-11 | 2026-09-03 12:37:58 | 48.42158 | 3.22914 | 216° | 9km/h | 21864m | 4.7m/s | -51.9°C | 0% | 0hPa | 5.4V | 00:00:00 | 00:00:00 | 00:00:00 | |
| DM0DOS-11 | 2026-09-03 12:37:47 | 48.42160 | 3.22899 | 111° | 18km/h | 21814m | 5.2m/s | -52°C | 0% | 0hPa | 5.4V | 00:00:00 | 00:00:00 | 00:00:00 | |
| DB0UT-7 | 2026-09-03 12:37:39 | 48.42164 | 3.22879 | 67° | 16km/h | 21796m | 4.9m/s | -52.0°C | 0% | 0hPa | 5.4V | 00:00:00 | 00:00:00 | 00:00:00 | |
| DB0UT-7 | 2026-09-03 12:37:09 | 48.42109 | 3.22712 | 79° | 18km/h | 21644m | 4.5m/s | -52.1°C | 0% | 0hPa | 5.4V | 00:00:00 | 00:00:00 | 00:00:00 | |
| DB0UT-7 | 2026-09-03 12:36:40 | 48.42071 | 3.22542 | 110° | 26km/h | 21497m | 5.4m/s | -52.4°C | 0% | 0hPa | 5.4V | 00:00:00 | 00:00:00 | 00:00:00 | |
| DB0UT-7 | 2026-09-03 12:36:09 | 48.42029 | 3.22280 | 38° | 24km/h | 21350m | 5.3m/s | -52.9°C | 0% | 0hPa | 5.4V | 00:00:00 | 00:00:00 | 00:00:00 | |
| DB0UT-7 | 2026-09-03 12:35:39 | 48.41876 | 3.22158 | 350° | 13km/h | 21203m | 4.0m/s | -52.8°C | 0% | 0hPa | 5.4V | 00:00:00 | 00:00:00 | 00:00:00 | |
| DB0UT-7 | 2026-09-03 12:35:08 | 48.41789 | 3.22154 | 90° | 11km/h | 21054m | 4.8m/s | -52.4°C | 0% | 0hPa | 5.4V | 00:00:00 | 00:00:00 | 00:00:00 | |
| DB0UT-7 | 2026-09-03 12:34:38 | 48.41790 | 3.22067 | 78° | 26km/h | 20903m | 5.6m/s | -52.3°C | 0% | 0hPa | 5.4V | 00:00:00 | 00:00:00 | 00:00:00 | |
| DB0UT-7 | 2026-09-03 12:34:08 | 48.41796 | 3.21773 | 85° | 27km/h | 20756m | 4.5m/s | -52.3°C | 0% | 0hPa | 5.4V | 00:00:00 | 00:00:00 | 00:00:00 | |
| DB0UT-7 | 2026-09-03 12:33:39 | 48.41770 | 3.21468 | 88° | 15km/h | 20604m | 5.5m/s | -52.0°C | 0% | 0hPa | 5.4V | 00:00:00 | 00:00:00 | 00:00:00 | |
| DB0UT-7 | 2026-09-03 12:33:08 | 48.41780 | 3.21304 | 88° | 15km/h | 20453m | 4.6m/s | -52.7°C | 0% | 0hPa | 5.4V | 00:00:00 | 00:00:00 | 00:00:00 | |
| DB0UT-7 | 2026-09-03 12:32:38 | 48.41783 | 3.21159 | 107° | 18km/h | 20306m | 5.0m/s | -53.9°C | 0% | 0hPa | 5.4V | 00:00:00 | 00:00:00 | 00:00:00 | |
| DB0UT-7 | 2026-09-03 12:32:08 | 48.41836 | 3.20979 | 109° | 16km/h | 20158m | 4.3m/s | -54.3°C | 0% | 0hPa | 5.4V | 00:00:00 | 00:00:00 | 00:00:00 | |
| DB0UT-7 | 2026-09-03 12:31:19 | 48.41886 | 3.20842 | 211° | 16km/h | 19917m | 4.9m/s | -53.8°C | 0% | 0hPa | 5.4V | 00:00:00 | 00:00:00 | 00:00:00 | |
| DB0UT-7 | 2026-09-03 12:30:49 | 48.41973 | 3.20825 | 149° | 31km/h | 19775m | 4.4m/s | -53.6°C | 0% | 0hPa | 5.4V | 00:00:00 | 00:00:00 | 00:00:00 | |
| DB0UT-7 | 2026-09-03 12:30:19 | 48.42168 | 3.20642 | 119° | 22km/h | 19627m | 4.9m/s | -53.7°C | 0% | 0hPa | 5.4V | 00:00:00 | 00:00:00 | 00:00:00 | |
| DB0UT-7 | 2026-09-03 12:29:24 | 48.42348 | 3.20227 | 140° | 31km/h | 19368m | 4.3m/s | -54.7°C | 0% | 0hPa | 5.4V | 00:00:00 | 00:00:00 | 00:00:00 | |
| DB0UT-7 | 2026-09-03 12:28:54 | 48.42483 | 3.19949 | 118° | 27km/h | 19225m | 5.3m/s | -55.1°C | 0% | 0hPa | 5.4V | 00:00:00 | 00:00:00 | 00:00:00 | |
| DB0UT-7 | 2026-09-03 12:28:24 | 48.42536 | 3.19667 | 93° | 26km/h | 19082m | 4.5m/s | -55.4°C | 0% | 0hPa | 5.4V | 00:00:00 | 00:00:00 | 00:00:00 | |
| DB0UT-7 | 2026-09-03 12:27:54 | 48.42629 | 3.19419 | 133° | 37km/h | 18938m | 4.2m/s | -56.4°C | 0% | 0hPa | 5.5V | 00:00:00 | 00:00:00 | 00:00:00 | |
| DB0UT-7 | 2026-09-03 12:27:24 | 48.42742 | 3.19054 | 99° | 31km/h | 18796m | 4.2m/s | -56.6°C | 0% | 0hPa | 5.5V | 00:00:00 | 00:00:00 | 00:00:00 | |
| DB0UT-7 | 2026-09-03 12:26:54 | 48.42755 | 3.18708 | 65° | 18km/h | 18659m | 3.9m/s | -56.8°C | 0% | 0hPa | 5.5V | 00:00:00 | 00:00:00 | 00:00:00 | |
| DB0UT-7 | 2026-09-03 12:26:22 | 48.42743 | 3.18482 | 84° | 22km/h | 18502m | 5.1m/s | -56.3°C | 0% | 0hPa | 5.5V | 00:00:00 | 00:00:00 | 00:00:00 | |
| DB0UT-7 | 2026-09-03 12:25:52 | 48.42821 | 3.18260 | 125° | 35km/h | 18353m | 5.1m/s | -56.6°C | 0% | 0hPa | 5.5V | 00:00:00 | 00:00:00 | 00:00:00 | |
| DB0UT-7 | 2026-09-03 12:25:22 | 48.42946 | 3.17921 | 115° | 37km/h | 18212m | 4.5m/s | -56.5°C | 0% | 0hPa | 5.5V | 00:00:00 | 00:00:00 | 00:00:00 | |
| DB0UT-7 | 2026-09-03 12:24:52 | 48.43040 | 3.17527 | 93° | 38km/h | 18064m | 5.0m/s | -56.8°C | 0% | 0hPa | 5.5V | 00:00:00 | 00:00:00 | 00:00:00 | |
| DB0UT-7 | 2026-09-03 12:24:20 | 48.43091 | 3.17076 | 103° | 33km/h | 17909m | 4.4m/s | -56.6°C | 0% | 0hPa | 5.5V | 00:00:00 | 00:00:00 | 00:00:00 | |
| DB0UT-7 | 2026-09-03 12:23:50 | 48.43145 | 3.16714 | 123° | 38km/h | 17758m | 4.7m/s | -56.6°C | 0% | 0hPa | 5.5V | 00:00:00 | 00:00:00 | 00:00:00 | |
| DB0UT-7 | 2026-09-03 12:23:20 | 48.43248 | 3.16317 | 104° | 38km/h | 17614m | 4.7m/s | -57.3°C | 0% | 0hPa | 5.5V | 00:00:00 | 00:00:00 | 00:00:00 | |
| DB0UT-7 | 2026-09-03 12:22:50 | 48.43341 | 3.15907 | 129° | 42km/h | 17479m | 4.0m/s | -57.3°C | 0% | 0hPa | 5.5V | 00:00:00 | 00:00:00 | 00:00:00 | |
| DB0UT-7 | 2026-09-03 12:22:20 | 48.43520 | 3.15510 | 129° | 55km/h | 17345m | 4.4m/s | -57.3°C | 0% | 0hPa | 5.5V | 00:00:00 | 00:00:00 | 00:00:00 | |
| DB0UT-7 | 2026-09-03 12:21:50 | 48.43754 | 3.14986 | 123° | 64km/h | 17211m | 4.3m/s | -57.2°C | 0% | 0hPa | 5.5V | 00:00:00 | 00:00:00 | 00:00:00 | |
| DB0UT-7 | 2026-09-03 12:21:20 | 48.43959 | 3.14341 | 107° | 62km/h | 17074m | 4.9m/s | -57.5°C | 0% | 0hPa | 5.5V | 00:00:00 | 00:00:00 | 00:00:00 | |
| DB0UT-7 | 2026-09-03 12:20:50 | 48.44134 | 3.13687 | 118° | 62km/h | 16935m | 4.0m/s | -57.7°C | 0% | 0hPa | 5.5V | 00:00:00 | 00:00:00 | 00:00:00 | |
| DB0UT-7 | 2026-09-03 12:20:20 | 48.44316 | 3.13032 | 113° | 60km/h | 16789m | 4.2m/s | -57.5°C | 0% | 0hPa | 5.5V | 00:00:00 | 00:00:00 | 00:00:00 | |
| DB0UT-7 | 2026-09-03 12:19:50 | 48.44417 | 3.12384 | 88° | 55km/h | 16647m | 3.9m/s | -57.3°C | 0% | 0hPa | 5.5V | 00:00:00 | 00:00:00 | 00:00:00 | |
| DB0UT-7 | 2026-09-03 12:19:19 | 48.44546 | 3.11766 | 123° | 57km/h | 16496m | 5.3m/s | -56.8°C | 0% | 0hPa | 5.5V | 00:00:00 | 00:00:00 | 00:00:00 | |
| DM0DOS-11 | 2026-09-03 12:19:18 | 48.44583 | 3.11626 | 105° | 40km/h | 16463m | 3.5m/s | -56.8°C | 0% | 0hPa | 5.6V | 00:00:00 | 00:00:00 | 00:00:00 | |
| DM0DOS-11 | 2026-09-03 12:19:05 | 48.44648 | 3.11400 | 110° | 40km/h | 16411m | 4.2m/s | -57.3°C | 0% | 0hPa | 5.6V | 00:00:00 | 00:00:00 | 00:00:00 | |
| DM0DOS-11 | 2026-09-03 12:18:54 | 48.44711 | 3.11181 | 107° | 42km/h | 16362m | 4.5m/s | -57.6°C | 0% | 0hPa | 5.6V | 00:00:00 | 00:00:00 | 00:00:00 | |
| DB0UT-7 | 2026-09-03 12:18:49 | 48.44711 | 3.11180 | 108° | 58km/h | 16362m | 4.4m/s | -57.6°C | 0% | 0hPa | 5.6V | 00:00:00 | 00:00:00 | 00:00:00 | |
| DM0DOS-11 | 2026-09-03 12:18:44 | 48.44770 | 3.11000 | 106° | 57km/h | 16316m | 4.4m/s | -57.4°C | 0% | 0hPa | 5.6V | 00:00:00 | 00:00:00 | 00:00:00 | |
| DM0DOS-11 | 2026-09-03 12:18:34 | 48.44833 | 3.10778 | 118° | 71km/h | 16268m | 4.1m/s | -57.2°C | 0% | 0hPa | 5.6V | 00:00:00 | 00:00:00 | 00:00:00 | |
| DM0DOS-11 | 2026-09-03 12:18:22 | 48.44909 | 3.10532 | 119° | 71km/h | 16219m | 4.9m/s | -57.4°C | 0% | 0hPa | 5.6V | 00:00:00 | 00:00:00 | 00:00:00 | |
| DB0UT-7 | 2026-09-03 12:18:19 | 48.44900 | 3.10556 | 116° | 73km/h | 16224m | 4.0m/s | -57.4°C | 0% | 0hPa | 5.6V | 00:00:00 | 00:00:00 | 00:00:00 | |
| DM0DOS-11 | 2026-09-03 12:18:09 | 48.45008 | 3.10250 | 118° | 73km/h | 16163m | 3.5m/s | -57.9°C | 0% | 0hPa | 5.6V | 00:00:00 | 00:00:00 | 00:00:00 | |
| DM0DOS-11 | 2026-09-03 12:17:50 | 48.45125 | 3.09747 | 100° | 75km/h | 16078m | 4.9m/s | -58.2°C | 0% | 0hPa | 5.6V | 00:00:00 | 00:00:00 | 00:00:00 | |
| DB0UT-7 | 2026-09-03 12:17:49 | 48.45116 | 3.09803 | 106° | 71km/h | 16087m | 3.7m/s | -58.1°C | 0% | 0hPa | 5.5V | 00:00:00 | 00:00:00 | 00:00:00 | |
| DM0DOS-11 | 2026-09-03 12:17:38 | 48.45167 | 3.09469 | 102° | 69km/h | 16034m | 4.3m/s | -58.1°C | 0% | 0hPa | 5.6V | 00:00:00 | 00:00:00 | 00:00:00 | |
| DB0UT-7 | 2026-09-03 12:17:19 | 48.45210 | 3.09009 | 102° | 62km/h | 15955m | 4.1m/s | -57.7°C | 0% | 0hPa | 5.5V | 00:00:00 | 00:00:00 | 00:00:00 | |
| DB0UT-7 | 2026-09-03 12:16:49 | 48.45328 | 3.08333 | 105° | 71km/h | 15823m | 4.9m/s | -57.9°C | 0% | 0hPa | 5.5V | 00:00:00 | 00:00:00 | 00:00:00 | |
| DB0UT-7 | 2026-09-03 12:16:19 | 48.45571 | 3.07607 | 125° | 80km/h | 15689m | 3.7m/s | -58.1°C | 0% | 0hPa | 5.5V | 00:00:00 | 00:00:00 | 00:00:00 | |
| DB0UT-7 | 2026-09-03 12:15:49 | 48.45851 | 3.06805 | 121° | 77km/h | 15556m | 4.6m/s | -57.7°C | 0% | 0hPa | 5.6V | 00:00:00 | 00:00:00 | 00:00:00 | |
| DB0UT-7 | 2026-09-03 12:15:20 | 48.46079 | 3.05998 | 113° | 75km/h | 15422m | 4.5m/s | -56.9°C | 0% | 0hPa | 5.6V | 00:00:00 | 00:00:00 | 00:00:00 | |
| DB0UT-7 | 2026-09-03 12:14:49 | 48.46255 | 3.05206 | 106° | 78km/h | 15292m | 4.6m/s | -57.6°C | 0% | 0hPa | 5.6V | 00:00:00 | 00:00:00 | 00:00:00 | |
| DB0UT-7 | 2026-09-03 12:14:19 | 48.46463 | 3.04368 | 110° | 78km/h | 15160m | 4.1m/s | -58.7°C | 0% | 0hPa | 5.6V | 00:00:00 | 00:00:00 | 00:00:00 | |
| DB0UT-7 | 2026-09-03 12:13:49 | 48.46678 | 3.03530 | 116° | 77km/h | 15035m | 4.1m/s | -58.1°C | 0% | 0hPa | 5.6V | 00:00:00 | 00:00:00 | 00:00:00 | |
| DB0UT-7 | 2026-09-03 12:13:19 | 48.46895 | 3.02706 | 109° | 82km/h | 14908m | 3.3m/s | -58.4°C | 0% | 0hPa | 5.6V | 00:00:00 | 00:00:00 | 00:00:00 | |
| DB0UT-7 | 2026-09-03 12:12:48 | 48.47097 | 3.01786 | 114° | 86km/h | 14774m | 4.5m/s | -58.7°C | 0% | 0hPa | 5.6V | 00:00:00 | 00:00:00 | 00:00:00 | |
| DB0UT-7 | 2026-09-03 12:12:17 | 48.47418 | 3.00908 | 113° | 80km/h | 14644m | 4.5m/s | -59.5°C | 0% | 0hPa | 5.6V | 00:00:00 | 00:00:00 | 00:00:00 | |
| DB0UT-7 | 2026-09-03 12:11:47 | 48.47741 | 3.00105 | 126° | 89km/h | 14519m | 4.2m/s | -59.4°C | 0% | 0hPa | 5.6V | 00:00:00 | 00:00:00 | 00:00:00 | |
| DB0UT-7 | 2026-09-03 12:11:17 | 48.48140 | 2.99248 | 125° | 104km/h | 14395m | 3.0m/s | -60.2°C | 0% | 0hPa | 5.6V | 00:00:00 | 00:00:00 | 00:00:00 | |
| DB0UT-7 | 2026-09-03 12:10:43 | 48.48646 | 2.98167 | 124° | 108km/h | 14249m | 4.8m/s | -62.0°C | 0% | 0hPa | 5.6V | 00:00:00 | 00:00:00 | 00:00:00 | |
| DB0UT-7 | 2026-09-03 12:10:13 | 48.49092 | 2.97132 | 122° | 108km/h | 14120m | 4.3m/s | -62.2°C | 0% | 0hPa | 5.6V | 00:00:00 | 00:00:00 | 00:00:00 | |
| DB0UT-7 | 2026-09-03 12:09:43 | 48.49576 | 2.96111 | 126° | 113km/h | 13993m | 4.7m/s | -62.3°C | 0% | 0hPa | 5.6V | 00:00:00 | 00:00:00 | 00:00:00 | |
| DB0UT-7 | 2026-09-03 12:09:01 | 48.50330 | 2.94704 | 131° | 124km/h | 13814m | 4.2m/s | -61.7°C | 0% | 0hPa | 5.6V | 00:00:00 | 00:00:00 | 00:00:00 | |
| DB0UT-7 | 2026-09-03 12:08:31 | 48.50895 | 2.93575 | 123° | 130km/h | 13685m | 4.7m/s | -61.9°C | 0% | 0hPa | 5.6V | 00:00:00 | 00:00:00 | 00:00:00 | |
| DB0UT-7 | 2026-09-03 12:07:59 | 48.51498 | 2.92353 | 126° | 133km/h | 13551m | 4.7m/s | -63.8°C | 0% | 0hPa | 5.6V | 00:00:00 | 00:00:00 | 00:00:00 | |
| DB0UT-7 | 2026-09-03 12:07:28 | 48.52051 | 2.91025 | 122° | 130km/h | 13411m | 4.7m/s | -65.1°C | 0% | 0hPa | 5.6V | 00:00:00 | 00:00:00 | 00:00:00 | |
| DB0UT-7 | 2026-09-03 12:06:58 | 48.52504 | 2.89718 | 116° | 133km/h | 13274m | 5.2m/s | -64.2°C | 0% | 0hPa | 5.6V | 00:00:00 | 00:00:00 | 00:00:00 | |
| DB0UT-7 | 2026-09-03 12:06:28 | 48.52946 | 2.88364 | 116° | 128km/h | 13132m | 4.9m/s | -63.2°C | 0% | 0hPa | 5.6V | 00:00:00 | 00:00:00 | 00:00:00 | |
| DB0UT-7 | 2026-09-03 12:05:57 | 48.53393 | 2.87022 | 116° | 115km/h | 12982m | 4.3m/s | -62.5°C | 0% | 0hPa | 5.6V | 00:00:00 | 00:00:00 | 00:00:00 | |
| DB0UT-7 | 2026-09-03 12:05:27 | 48.53810 | 2.85868 | 122° | 110km/h | 12818m | 4.9m/s | -61.7°C | 0% | 0hPa | 5.6V | 00:00:00 | 00:00:00 | 00:00:00 | |
| DB0UT-7 | 2026-09-03 12:04:57 | 48.54282 | 2.84847 | 125° | 113km/h | 12682m | 4.0m/s | -60.8°C | 0% | 0hPa | 5.6V | 00:00:00 | 00:00:00 | 00:00:00 | |
| DB0UT-7 | 2026-09-03 12:04:25 | 48.54811 | 2.83730 | 123° | 113km/h | 12549m | 3.4m/s | -59.9°C | 0% | 0hPa | 5.6V | 00:00:00 | 00:00:00 | 00:00:00 | |
| DB0UT-7 | 2026-09-03 12:03:55 | 48.55312 | 2.82675 | 128° | 115km/h | 12427m | 4.3m/s | -58.9°C | 0% | 0hPa | 5.6V | 00:00:00 | 00:00:00 | 00:00:00 | |
| DB0UT-7 | 2026-09-03 12:03:25 | 48.55819 | 2.81602 | 131° | 117km/h | 12305m | 4.4m/s | -57.9°C | 0% | 0hPa | 5.7V | 00:00:00 | 00:00:00 | 00:00:00 | |
| DB0UT-7 | 2026-09-03 12:02:55 | 48.56328 | 2.80543 | 124° | 115km/h | 12181m | 3.9m/s | -56.8°C | 0% | 0hPa | 5.7V | 00:00:00 | 00:00:00 | 00:00:00 | |
| DB0UT-7 | 2026-09-03 12:02:13 | 48.57036 | 2.79051 | 123° | 113km/h | 11993m | 4.4m/s | -55.3°C | 0% | 0hPa | 5.7V | 00:00:00 | 00:00:00 | 00:00:00 | |
| DB0UT-7 | 2026-09-03 12:01:43 | 48.57546 | 2.78001 | 125° | 115km/h | 11869m | 3.5m/s | -54.4°C | 0% | 0hPa | 5.7V | 00:00:00 | 00:00:00 | 00:00:00 | |
| DB0UT-7 | 2026-09-03 12:00:31 | 48.58799 | 2.75527 | 126° | 113km/h | 11556m | 3.8m/s | -51.6°C | 0% | 0hPa | 5.7V | 00:00:00 | 00:00:00 | 00:00:00 | |
| DB0UT-7 | 2026-09-03 12:00:01 | 48.59350 | 2.74528 | 130° | 113km/h | 11429m | 4.4m/s | -50.5°C | 0% | 0hPa | 5.7V | 00:00:00 | 00:00:00 | 00:00:00 | |
| DB0UT-7 | 2026-09-03 11:59:31 | 48.59888 | 2.73528 | 128° | 115km/h | 11306m | 5.0m/s | -49.6°C | 0% | 0hPa | 5.7V | 00:00:00 | 00:00:00 | 00:00:00 | |
| DB0UT-7 | 2026-09-03 11:59:00 | 48.60443 | 2.72463 | 129° | 117km/h | 11172m | 3.0m/s | -48.5°C | 0% | 0hPa | 5.7V | 00:00:00 | 00:00:00 | 00:00:00 | |
| DB0UT-7 | 2026-09-03 11:58:30 | 48.60985 | 2.71406 | 132° | 111km/h | 11046m | 3.9m/s | -47.4°C | 0% | 0hPa | 5.7V | 00:00:00 | 00:00:00 | 00:00:00 | |
| DB0UT-7 | 2026-09-03 11:58:00 | 48.61497 | 2.70395 | 125° | 111km/h | 10906m | 4.5m/s | -46.7°C | 0% | 0hPa | 5.7V | 00:00:00 | 00:00:00 | 00:00:00 | |
| DB0UT-7 | 2026-09-03 11:57:17 | 48.62150 | 2.68868 | 124° | 110km/h | 10714m | 4.1m/s | -44.9°C | 0% | 0hPa | 5.7V | 00:00:00 | 00:00:00 | 00:00:00 | |
| DB0UT-7 | 2026-09-03 11:56:45 | 48.62622 | 2.67752 | 127° | 111km/h | 10578m | 4.6m/s | -43.9°C | 0% | 0hPa | 5.7V | 00:00:00 | 00:00:00 | 00:00:00 | |
| DB0UT-7 | 2026-09-03 11:56:15 | 48.63083 | 2.66690 | 125° | 113km/h | 10453m | 4.0m/s | -43.0°C | 0% | 0hPa | 5.7V | 00:00:00 | 00:00:00 | 00:00:00 | |
| DB0UT-7 | 2026-09-03 11:55:44 | 48.63566 | 2.65559 | 120° | 113km/h | 10323m | 4.8m/s | -41.9°C | 0% | 0hPa | 5.7V | 00:00:00 | 00:00:00 | 00:00:00 | |
| DB0UT-7 | 2026-09-03 11:55:14 | 48.64006 | 2.64451 | 121° | 111km/h | 10199m | 4.2m/s | -40.8°C | 0% | 0hPa | 5.7V | 00:00:00 | 00:00:00 | 00:00:00 | |
| DB0UT-7 | 2026-09-03 11:54:44 | 48.64442 | 2.63372 | 122° | 111km/h | 10078m | 3.7m/s | -39.7°C | 0% | 0hPa | 5.7V | 00:00:00 | 00:00:00 | 00:00:00 | |
| DB0UT-7 | 2026-09-03 11:53:37 | 48.65331 | 2.60931 | 122° | 108km/h | 9797m | 5.4m/s | -37.7°C | 0% | 0hPa | 5.7V | 00:00:00 | 00:00:00 | 00:00:00 | |
| DB0UT-7 | 2026-09-03 11:53:07 | 48.65660 | 2.59804 | 108° | 106km/h | 9673m | 4.7m/s | -36.6°C | 0% | 0hPa | 5.7V | 00:00:00 | 00:00:00 | 00:00:00 | |
| DB0UT-7 | 2026-09-03 11:51:57 | 48.66340 | 2.57162 | 114° | 106km/h | 9395m | 3.1m/s | -33.9°C | 0% | 0hPa | 5.7V | 00:00:00 | 00:00:00 | 00:00:00 | |
| DB0UT-7 | 2026-09-03 11:51:27 | 48.66620 | 2.56028 | 109° | 106km/h | 9278m | 3.9m/s | -32.8°C | 0% | 0hPa | 5.7V | 00:00:00 | 00:00:00 | 00:00:00 | |
| DB0UT-7 | 2026-09-03 11:50:19 | 48.67183 | 2.53412 | 111° | 106km/h | 9015m | 2.8m/s | -30.6°C | 0% | 0hPa | 5.7V | 00:00:00 | 00:00:00 | 00:00:00 | |
| DB0UT-7 | 2026-09-03 11:49:49 | 48.67407 | 2.52248 | 105° | 104km/h | 8901m | 3.8m/s | -29.6°C | 0% | 0hPa | 5.7V | 00:00:00 | 00:00:00 | 00:00:00 | |
| DB0UT-7 | 2026-09-03 11:49:19 | 48.67637 | 2.51116 | 111° | 99km/h | 8789m | 2.9m/s | -28.8°C | 0% | 0hPa | 5.7V | 00:00:00 | 00:00:00 | 00:00:00 | |
| DB0UT-7 | 2026-09-03 11:48:19 | 48.68059 | 2.48938 | 107° | 97km/h | 8561m | 3.5m/s | -26.8°C | 0% | 0hPa | 5.7V | 00:00:00 | 00:00:00 | 00:00:00 | |
| DB0UT-7 | 2026-09-03 11:47:49 | 48.68249 | 2.47867 | 103° | 95km/h | 8441m | 4.1m/s | -25.7°C | 0% | 0hPa | 5.7V | 00:00:00 | 00:00:00 | 00:00:00 | |
| DB0UT-7 | 2026-09-03 11:46:31 | 48.68860 | 2.45187 | 111° | 91km/h | 8119m | 3.5m/s | -23.7°C | 0% | 0hPa | 5.7V | 00:00:00 | 00:00:00 | 00:00:00 | |
| DB0UT-7 | 2026-09-03 11:46:01 | 48.69176 | 2.44252 | 112° | 88km/h | 7996m | 3.7m/s | -22.5°C | 0% | 0hPa | 5.7V | 00:00:00 | 00:00:00 | 00:00:00 | |
| DB0UT-7 | 2026-09-03 11:45:07 | 48.69701 | 2.42573 | 117° | 89km/h | 7764m | 5.3m/s | -20.4°C | 0% | 0hPa | 5.7V | 00:00:00 | 00:00:00 | 00:00:00 | |
| DB0UT-7 | 2026-09-03 11:44:37 | 48.70001 | 2.41644 | 115° | 80km/h | 7644m | 3.8m/s | -19.2°C | 0% | 0hPa | 5.7V | 00:00:00 | 00:00:00 | 00:00:00 | |
| DB0UT-7 | 2026-09-03 11:43:57 | 48.70383 | 2.40423 | 108° | 86km/h | 7489m | 2.7m/s | -18.0°C | 0% | 0hPa | 5.7V | 00:00:00 | 00:00:00 | 00:00:00 | |
| DB0UT-7 | 2026-09-03 11:43:26 | 48.70642 | 2.39480 | 112° | 82km/h | 7373m | 4.6m/s | -16.9°C | 0% | 0hPa | 5.7V | 00:00:00 | 00:00:00 | 00:00:00 | |
| DB0UT-7 | 2026-09-03 11:42:55 | 48.70844 | 2.38581 | 104° | 78km/h | 7265m | 2.8m/s | -16.5°C | 0% | 0hPa | 5.7V | 00:00:00 | 00:00:00 | 00:00:00 | |
| DB0UT-7 | 2026-09-03 11:41:44 | 48.71248 | 2.36525 | 104° | 78km/h | 7013m | 4.1m/s | -15.3°C | 0% | 0hPa | 5.8V | 00:00:00 | 00:00:00 | 00:00:00 | |
| DB0UT-7 | 2026-09-03 11:41:14 | 48.71409 | 2.35655 | 113° | 77km/h | 6906m | 3.0m/s | -15.1°C | 0% | 0hPa | 5.8V | 00:00:00 | 00:00:00 | 00:00:00 | |
| DB0UT-7 | 2026-09-03 11:40:02 | 48.71817 | 2.33621 | 105° | 77km/h | 6634m | 2.5m/s | -12.8°C | 0% | 0hPa | 5.8V | 00:00:00 | 00:00:00 | 00:00:00 | |
| DB0UT-7 | 2026-09-03 11:39:31 | 48.71974 | 2.32743 | 104° | 73km/h | 6521m | 4.0m/s | -12.2°C | 0% | 0hPa | 5.8V | 00:00:00 | 00:00:00 | 00:00:00 | |
| DB0UT-7 | 2026-09-03 11:38:28 | 48.72257 | 2.30975 | 100° | 78km/h | 6278m | 4.6m/s | -10.6°C | 0% | 0hPa | 5.8V | 00:00:00 | 00:00:00 | 00:00:00 | |
| DB0UT-7 | 2026-09-03 11:37:58 | 48.72376 | 2.30098 | 103° | 77km/h | 6155m | 3.7m/s | -9.7°C | 0% | 0hPa | 5.8V | 00:00:00 | 00:00:00 | 00:00:00 |